Time;durP1;ratioP1;P1;durP2;ratioP2;P2;SDS_P1;SDS_P2;PMS_P1;PMS_P2;Temp;Humidity;BMP_temperature;BMP_pressure;BME280_temperature;BME280_humidity;BME280_pressure;Samples;Min_cycle;Max_cycle;Signal;HPM_P1;HPM_P2
2022/03/05 00:00:09;;;;;;;;;;;;;;;;;;4917453;29;19919;-79
2022/03/05 00:02:35;;;;;;;;;;;;;;;;;;4917203;29;19922;-79
2022/03/05 00:05:01;;;;;;;;;;;;;;;;;;4917480;29;19923;-78
2022/03/05 00:07:27;;;;;;;;;;;;;;;;;;4917621;29;20286;-79
2022/03/05 00:09:53;;;;;;;;;;;;;;;;;;4916732;29;19919;-79
2022/03/05 00:12:19;;;;;;;;;;;;;;;;;;4917025;29;19911;-79
2022/03/05 00:14:45;;;;;;;;;;;;;;;;;;4917359;29;19954;-79
2022/03/05 00:17:11;;;;;;;;;;;;;;;;;;4903271;29;19915;-78
2022/03/05 00:19:37;;;;;;;;;;;;;;;;;;4898492;29;20006;-78
2022/03/05 00:22:03;;;;;;;;;;;;;;;;;;4898582;29;20379;-78
2022/03/05 00:24:29;;;;;;;;;;;;;;;;;;4898154;29;19915;-78
2022/03/05 00:26:55;;;;;;;;;;;;;;;;;;4898409;29;20425;-79
2022/03/05 00:29:21;;;;;;;;;;;;;;;;;;4899427;29;19912;-79
2022/03/05 00:31:47;;;;;;;;;;;;;;;;;;4917291;29;19960;-79
2022/03/05 00:34:12;;;;;;;;;;;;;;;;;;4917476;29;19950;-79
2022/03/05 00:36:38;;;;;;;;;;;;;;;;;;4917352;29;19911;-78
2022/03/05 00:39:04;;;;;;;;;;;;;;;;;;4916906;29;20321;-78
2022/03/05 00:41:30;;;;;;;;;;;;;;;;;;4916805;29;20276;-78
2022/03/05 00:43:56;;;;;;;;;;;;;;;;;;4917242;29;19911;-79
2022/03/05 00:46:22;;;;;;;;;;;;;;;;;;4916811;29;19915;-78
2022/03/05 00:48:48;;;;;;;;;;;;;;;;;;4917290;29;19911;-79
2022/03/05 00:51:14;;;;;;;;;;;;;;;;;;4916564;29;20287;-78
2022/03/05 00:53:40;;;;;;;;;;;;;;;;;;4916775;29;19915;-79
2022/03/05 00:56:06;;;;;;;;;;;;;;;;;;4917180;29;19915;-79
2022/03/05 00:58:32;;;;;;;;;;;;;;;;;;4902533;29;20328;-78
2022/03/05 01:00:57;;;;;;;;;;;;;;;;;;4898121;29;19911;-79
2022/03/05 01:03:24;;;;;;;;;;;;;;;;;;4897912;29;20363;-79
2022/03/05 01:05:50;;;;;;;;;;;;;;;;;;4881471;29;19919;-79
2022/03/05 01:08:16;;;;;;;;;;;;;;;;;;4879028;29;20014;-79
2022/03/05 01:10:42;;;;;;;;;;;;;;;;;;4862488;29;20352;-79
2022/03/05 01:13:08;;;;;;;;;;;;;;;;;;4879324;29;20368;-78
2022/03/05 01:15:34;;;;;;;;;;;;;;;;;;4879206;29;19962;-78
2022/03/05 01:18:00;;;;;;;;;;;;;;;;;;4879382;29;19944;-79
2022/03/05 01:20:26;;;;;;;;;;;;;;;;;;4885812;29;20044;-79
2022/03/05 01:22:52;;;;;;;;;;;;;;;;;;4898237;29;19911;-79
2022/03/05 01:25:18;;;;;;;;;;;;;;;;;;4897620;29;19916;-79
2022/03/05 01:27:44;;;;;;;;;;;;;;;;;;4881473;29;19915;-79
2022/03/05 01:30:10;;;;;;;;;;;;;;;;;;4897885;29;20004;-79
2022/03/05 01:32:36;;;;;;;;;;;;;;;;;;4893529;29;19929;-79
2022/03/05 01:35:02;;;;;;;;;;;;;;;;;;4915678;29;19915;-78
2022/03/05 01:37:28;;;;;;;;;;;;;;;;;;4920308;29;19919;-79
2022/03/05 01:39:53;;;;;;;;;;;;;;;;;;4920285;29;20339;-78
2022/03/05 01:42:19;;;;;;;;;;;;;;;;;;4920548;29;20390;-79
2022/03/05 01:44:45;;;;;;;;;;;;;;;;;;4905496;29;20011;-78
2022/03/05 01:47:11;;;;;;;;;;;;;;;;;;4868114;29;20296;-79
2022/03/05 01:49:37;;;;;;;;;;;;;;;;;;4895222;29;19918;-79
2022/03/05 01:52:03;;;;;;;;;;;;;;;;;;4900524;29;19930;-78
2022/03/05 01:54:29;;;;;;;;;;;;;;;;;;4884355;29;19912;-78
2022/03/05 01:56:55;;;;;;;;;;;;;;;;;;4898277;29;20286;-79
2022/03/05 01:59:21;;;;;;;;;;;;;;;;;;4916010;29;19918;-79
2022/03/05 02:01:47;;;;;;;;;;;;;;;;;;4919822;29;20001;-79
2022/03/05 02:04:13;;;;;;;;;;;;;;;;;;4900690;29;19939;-79
2022/03/05 02:06:39;;;;;;;;;;;;;;;;;;4883927;29;20015;-78
2022/03/05 02:09:04;;;;;;;;;;;;;;;;;;4901040;29;20045;-79
2022/03/05 02:11:30;;;;;;;;;;;;;;;;;;4901019;29;20368;-79
2022/03/05 02:13:56;;;;;;;;;;;;;;;;;;4901163;29;19912;-78
2022/03/05 02:16:22;;;;;;;;;;;;;;;;;;4898224;29;20004;-79
2022/03/05 02:18:49;;;;;;;;;;;;;;;;;;4919541;29;19911;-79
2022/03/05 02:21:15;;;;;;;;;;;;;;;;;;4919908;29;19907;-78
2022/03/05 02:23:40;;;;;;;;;;;;;;;;;;4919356;29;20412;-78
2022/03/05 02:26:06;;;;;;;;;;;;;;;;;;4919667;29;19916;-79
2022/03/05 02:28:32;;;;;;;;;;;;;;;;;;4913744;29;19977;-79
2022/03/05 02:30:58;;;;;;;;;;;;;;;;;;4900254;29;19998;-78
2022/03/05 02:33:24;;;;;;;;;;;;;;;;;;4899700;29;19912;-78
2022/03/05 02:35:50;;;;;;;;;;;;;;;;;;4911747;29;20025;-79
2022/03/05 02:38:16;;;;;;;;;;;;;;;;;;4919064;29;19911;-79
2022/03/05 02:40:42;;;;;;;;;;;;;;;;;;4919018;29;19911;-79
2022/03/05 02:43:08;;;;;;;;;;;;;;;;;;4918312;29;20389;-79
2022/03/05 02:45:34;;;;;;;;;;;;;;;;;;4918440;29;19926;-79
2022/03/05 02:47:59;;;;;;;;;;;;;;;;;;4918948;29;19918;-78
2022/03/05 02:50:25;;;;;;;;;;;;;;;;;;4919185;29;19911;-78
2022/03/05 02:52:51;;;;;;;;;;;;;;;;;;4901545;29;19924;-79
2022/03/05 02:55:17;;;;;;;;;;;;;;;;;;4919223;29;19911;-79
2022/03/05 02:57:43;;;;;;;;;;;;;;;;;;4919070;29;19912;-79
2022/03/05 03:00:09;;;;;;;;;;;;;;;;;;4918787;29;19967;-79
2022/03/05 03:02:35;;;;;;;;;;;;;;;;;;4918441;29;20359;-79
2022/03/05 03:05:01;;;;;;;;;;;;;;;;;;4918929;29;19973;-78
2022/03/05 03:07:27;;;;;;;;;;;;;;;;;;4918584;29;19911;-79
2022/03/05 03:09:53;;;;;;;;;;;;;;;;;;4901676;29;20291;-79
2022/03/05 03:12:19;;;;;;;;;;;;;;;;;;4918865;29;20013;-79
2022/03/05 03:14:45;;;;;;;;;;;;;;;;;;4918014;29;20358;-79
2022/03/05 03:17:10;;;;;;;;;;;;;;;;;;4906664;29;19911;-79
2022/03/05 03:19:36;;;;;;;;;;;;;;;;;;4916157;29;19912;-79
2022/03/05 03:22:02;;;;;;;;;;;;;;;;;;4918395;29;20394;-79
2022/03/05 03:24:28;;;;;;;;;;;;;;;;;;4904353;29;19919;-78
2022/03/05 03:26:54;;;;;;;;;;;;;;;;;;4899471;29;19919;-79
2022/03/05 03:29:20;;;;;;;;;;;;;;;;;;4912287;29;19997;-78
2022/03/05 03:31:46;;;;;;;;;;;;;;;;;;4912249;29;19911;-78
2022/03/05 03:34:12;;;;;;;;;;;;;;;;;;4915080;29;19976;-79
2022/03/05 03:36:38;;;;;;;;;;;;;;;;;;4901704;29;20463;-79
2022/03/05 03:39:04;;;;;;;;;;;;;;;;;;4899379;29;19919;-79
2022/03/05 03:41:29;;;;;;;;;;;;;;;;;;4899406;29;19911;-78
2022/03/05 03:43:55;;;;;;;;;;;;;;;;;;4899166;29;19908;-78
2022/03/05 03:46:21;;;;;;;;;;;;;;;;;;4916937;29;20307;-79
2022/03/05 03:48:47;;;;;;;;;;;;;;;;;;4901093;29;19988;-79
2022/03/05 03:51:13;;;;;;;;;;;;;;;;;;4900690;29;20387;-79
2022/03/05 03:53:39;;;;;;;;;;;;;;;;;;4918018;29;19968;-78
2022/03/05 03:56:05;;;;;;;;;;;;;;;;;;4917630;29;19911;-79
2022/03/05 03:58:31;;;;;;;;;;;;;;;;;;4918114;29;19907;-79
2022/03/05 04:00:57;;;;;;;;;;;;;;;;;;4905083;29;19912;-79
2022/03/05 04:03:23;;;;;;;;;;;;;;;;;;4899057;29;20399;-78
2022/03/05 04:05:49;;;;;;;;;;;;;;;;;;4898715;29;19970;-78
2022/03/05 04:10:59;;;;;;;;;;;;;;;;;;4910223;29;20395;-79
2022/03/05 04:13:25;;;;;;;;;;;;;;;;;;4909083;29;19946;-78
2022/03/05 04:15:51;;;;;;;;;;;;;;;;;;4917058;29;20059;-79
2022/03/05 04:18:17;;;;;;;;;;;;;;;;;;4917580;29;19915;-78
2022/03/05 04:20:43;;;;;;;;;;;;;;;;;;4908088;29;19916;-79
2022/03/05 04:23:09;;;;;;;;;;;;;;;;;;4898543;29;19927;-78
2022/03/05 04:25:35;;;;;;;;;;;;;;;;;;4898448;29;19998;-79
2022/03/05 04:28:00;;;;;;;;;;;;;;;;;;4912121;29;20423;-79
2022/03/05 04:30:26;;;;;;;;;;;;;;;;;;4900259;29;20002;-78
2022/03/05 04:32:52;;;;;;;;;;;;;;;;;;4917304;29;19911;-79
2022/03/05 04:35:18;;;;;;;;;;;;;;;;;;4911982;29;20357;-79
2022/03/05 04:37:44;;;;;;;;;;;;;;;;;;4900336;29;19968;-79
2022/03/05 04:40:10;;;;;;;;;;;;;;;;;;4917616;29;19911;-78
2022/03/05 04:42:36;;;;;;;;;;;;;;;;;;4904393;29;19919;-79
2022/03/05 04:45:02;;;;;;;;;;;;;;;;;;4916733;29;19963;-79
2022/03/05 04:47:28;;;;;;;;;;;;;;;;;;4906734;29;19912;-78
2022/03/05 04:49:54;;;;;;;;;;;;;;;;;;4910665;29;19926;-79
2022/03/05 04:52:20;;;;;;;;;;;;;;;;;;4907376;29;19923;-79
2022/03/05 04:54:46;;;;;;;;;;;;;;;;;;4898392;29;19919;-78
2022/03/05 04:57:12;;;;;;;;;;;;;;;;;;4915273;29;19918;-78
2022/03/05 04:59:38;;;;;;;;;;;;;;;;;;4898620;29;19911;-79
2022/03/05 05:02:04;;;;;;;;;;;;;;;;;;4906260;29;20333;-78
2022/03/05 05:04:29;;;;;;;;;;;;;;;;;;4899164;29;20382;-78
2022/03/05 05:06:56;;;;;;;;;;;;;;;;;;4901066;29;20405;-78
2022/03/05 05:09:22;;;;;;;;;;;;;;;;;;4920821;29;19912;-79
2022/03/05 05:11:48;;;;;;;;;;;;;;;;;;4921112;29;19914;-79
2022/03/05 05:14:13;;;;;;;;;;;;;;;;;;4903341;29;20253;-79
2022/03/05 05:16:39;;;;;;;;;;;;;;;;;;4920784;29;19907;-79
2022/03/05 05:21:50;;;;;;;;;;;;;;;;;;4920769;29;19953;-78
2022/03/05 05:24:16;;;;;;;;;;;;;;;;;;4920567;29;19908;-79
2022/03/05 05:26:42;;;;;;;;;;;;;;;;;;4920602;29;20407;-79
2022/03/05 05:29:08;;;;;;;;;;;;;;;;;;4919987;29;19980;-79
2022/03/05 05:31:34;;;;;;;;;;;;;;;;;;4920680;29;19966;-78
2022/03/05 05:34:00;;;;;;;;;;;;;;;;;;4920670;29;20385;-79
2022/03/05 05:36:25;;;;;;;;;;;;;;;;;;4910297;29;19915;-79
2022/03/05 05:38:51;;;;;;;;;;;;;;;;;;4901637;29;20372;-79
2022/03/05 05:41:18;;;;;;;;;;;;;;;;;;4901269;29;19912;-79
2022/03/05 05:43:44;;;;;;;;;;;;;;;;;;4901437;29;19935;-78
2022/03/05 05:46:10;;;;;;;;;;;;;;;;;;4901012;29;19944;-78
2022/03/05 05:48:36;;;;;;;;;;;;;;;;;;4887643;29;19975;-78
2022/03/05 05:51:02;;;;;;;;;;;;;;;;;;4901178;29;19942;-79
2022/03/05 05:53:28;;;;;;;;;;;;;;;;;;4900920;29;20364;-79
2022/03/05 05:55:54;;;;;;;;;;;;;;;;;;4908350;29;19921;-78
2022/03/05 05:58:19;;;;;;;;;;;;;;;;;;4901106;29;20447;-79
2022/03/05 06:00:45;;;;;;;;;;;;;;;;;;4910608;29;19919;-79
2022/03/05 06:03:11;;;;;;;;;;;;;;;;;;4900991;29;20272;-78
2022/03/05 06:05:37;;;;;;;;;;;;;;;;;;4884014;29;19919;-79
2022/03/05 06:08:03;;;;;;;;;;;;;;;;;;4919091;29;19912;-79
2022/03/05 06:10:29;;;;;;;;;;;;;;;;;;4919668;29;19911;-79
2022/03/05 06:12:55;;;;;;;;;;;;;;;;;;4920218;29;19930;-79
2022/03/05 06:15:21;;;;;;;;;;;;;;;;;;4919600;29;19917;-79
2022/03/05 06:17:47;;;;;;;;;;;;;;;;;;4919638;29;20005;-78
2022/03/05 06:20:13;;;;;;;;;;;;;;;;;;4912087;29;19921;-79
2022/03/05 06:22:39;;;;;;;;;;;;;;;;;;4919696;29;19911;-79
2022/03/05 06:25:05;;;;;;;;;;;;;;;;;;4919515;29;19915;-79
2022/03/05 06:27:31;;;;;;;;;;;;;;;;;;4902664;29;20375;-78
2022/03/05 06:29:57;;;;;;;;;;;;;;;;;;4919617;29;19908;-78
2022/03/05 06:32:23;;;;;;;;;;;;;;;;;;4919170;29;19911;-78
2022/03/05 06:34:49;;;;;;;;;;;;;;;;;;4909897;29;19921;-78
2022/03/05 06:37:15;;;;;;;;;;;;;;;;;;4916733;29;20001;-79
2022/03/05 06:39:40;;;;;;;;;;;;;;;;;;4919140;29;19954;-79
2022/03/05 06:42:06;;;;;;;;;;;;;;;;;;4919087;29;20006;-78
2022/03/05 06:44:32;;;;;;;;;;;;;;;;;;4919168;29;19998;-78
2022/03/05 06:46:59;;;;;;;;;;;;;;;;;;4919049;29;19915;-78
2022/03/05 06:49:25;;;;;;;;;;;;;;;;;;4900798;29;19919;-79
2022/03/05 06:51:51;;;;;;;;;;;;;;;;;;4918486;29;19923;-79
2022/03/05 06:54:16;;;;;;;;;;;;;;;;;;4917833;29;20010;-79
2022/03/05 06:56:43;;;;;;;;;;;;;;;;;;4918651;29;20290;-78
2022/03/05 06:59:09;;;;;;;;;;;;;;;;;;4885781;29;19912;-79
2022/03/05 07:01:35;;;;;;;;;;;;;;;;;;4918248;29;19918;-78
2022/03/05 07:04:01;;;;;;;;;;;;;;;;;;4918360;29;20441;-77
2022/03/05 07:06:26;;;;;;;;;;;;;;;;;;4919063;29;19919;-78
2022/03/05 07:08:52;;;;;;;;;;;;;;;;;;4918670;29;19962;-78
2022/03/05 07:11:18;;;;;;;;;;;;;;;;;;4903631;29;19911;-78
2022/03/05 07:13:44;;;;;;;;;;;;;;;;;;4899792;29;19919;-77
2022/03/05 07:16:10;;;;;;;;;;;;;;;;;;4905161;29;19918;-78
2022/03/05 07:18:36;;;;;;;;;;;;;;;;;;4907582;29;19923;-79
2022/03/05 07:21:02;;;;;;;;;;;;;;;;;;4915460;29;20371;-78
2022/03/05 07:23:28;;;;;;;;;;;;;;;;;;4918209;29;20011;-77
2022/03/05 07:25:54;;;;;;;;;;;;;;;;;;4896071;29;20017;-81
2022/03/05 07:28:20;;;;;;;;;;;;;;;;;;4912522;29;19911;-77
2022/03/05 07:30:46;;;;;;;;;;;;;;;;;;4908835;29;19912;-77
2022/03/05 07:33:12;;;;;;;;;;;;;;;;;;4894219;29;19911;-77
2022/03/05 07:35:38;;;;;;;;;;;;;;;;;;4921601;29;19922;-76
2022/03/05 07:38:04;;;;;;;;;;;;;;;;;;4915799;29;19922;-76
2022/03/05 07:40:29;;;;;;;;;;;;;;;;;;4917360;29;19950;-77
2022/03/05 07:42:55;;;;;;;;;;;;;;;;;;4914399;29;19912;-77
2022/03/05 07:45:21;;;;;;;;;;;;;;;;;;4904120;29;20340;-77
2022/03/05 07:47:47;;;;;;;;;;;;;;;;;;4910169;29;19918;-77
2022/03/05 07:50:13;;;;;;;;;;;;;;;;;;4923969;29;19915;-77
2022/03/05 07:52:39;;;;;;;;;;;;;;;;;;4917901;29;20055;-78
2022/03/05 07:55:05;;;;;;;;;;;;;;;;;;4904155;29;20379;-76
2022/03/05 07:57:31;;;;;;;;;;;;;;;;;;4917550;29;19911;-77
2022/03/05 07:59:57;;;;;;;;;;;;;;;;;;4914210;29;20276;-77
2022/03/05 08:02:23;;;;;;;;;;;;;;;;;;4910954;29;19915;-76
2022/03/05 08:04:49;;;;;;;;;;;;;;;;;;4916220;29;19919;-76
2022/03/05 08:07:15;;;;;;;;;;;;;;;;;;4915244;29;19976;-76
2022/03/05 08:09:43;;;;;;;;;;;;;;;;;;4898739;29;19911;-76
2022/03/05 08:12:09;;;;;;;;;;;;;;;;;;4898921;29;19911;-77
2022/03/05 08:14:35;;;;;;;;;;;;;;;;;;4898620;29;19912;-76
2022/03/05 08:17:01;;;;;;;;;;;;;;;;;;4898641;29;19911;-76
2022/03/05 08:19:27;;;;;;;;;;;;;;;;;;4898831;29;20380;-76
2022/03/05 08:21:53;;;;;;;;;;;;;;;;;;4897631;29;19919;-76
2022/03/05 08:24:18;;;;;;;;;;;;;;;;;;4910508;29;19922;-76
2022/03/05 08:26:44;;;;;;;;;;;;;;;;;;4927088;29;19965;-76
2022/03/05 08:29:10;;;;;;;;;;;;;;;;;;4923275;29;19919;-77
2022/03/05 08:31:36;;;;;;;;;;;;;;;;;;4924506;29;19910;-76
2022/03/05 08:34:02;;;;;;;;;;;;;;;;;;4935724;29;19910;-76
2022/03/05 08:36:28;;;;;;;;;;;;;;;;;;4932159;29;19967;-76
2022/03/05 08:38:54;;;;;;;;;;;;;;;;;;4916616;29;19958;-76
2022/03/05 08:41:20;;;;;;;;;;;;;;;;;;4900492;29;19919;-76
2022/03/05 08:43:46;;;;;;;;;;;;;;;;;;4915117;29;20352;-77
2022/03/05 08:46:12;;;;;;;;;;;;;;;;;;4918912;29;19994;-76
2022/03/05 08:48:37;;;;;;;;;;;;;;;;;;4917379;29;19912;-76
2022/03/05 08:51:03;;;;;;;;;;;;;;;;;;4904632;29;20410;-76
2022/03/05 08:53:29;;;;;;;;;;;;;;;;;;4904780;29;20303;-77
2022/03/05 08:55:55;;;;;;;;;;;;;;;;;;4898019;29;19955;-76
2022/03/05 08:58:21;;;;;;;;;;;;;;;;;;4898066;29;19911;-76
2022/03/05 09:00:47;;;;;;;;;;;;;;;;;;4897884;29;19914;-77
2022/03/05 09:03:13;;;;;;;;;;;;;;;;;;4897900;29;19911;-77
2022/03/05 09:05:39;;;;;;;;;;;;;;;;;;4908247;29;20284;-77
2022/03/05 09:08:05;;;;;;;;;;;;;;;;;;4898159;29;19937;-77
2022/03/05 09:10:31;;;;;;;;;;;;;;;;;;4897739;29;19908;-77
2022/03/05 09:12:56;;;;;;;;;;;;;;;;;;4897496;29;19912;-77
2022/03/05 09:15:22;;;;;;;;;;;;;;;;;;4897332;29;20283;-77
2022/03/05 09:17:48;;;;;;;;;;;;;;;;;;4908159;29;19916;-76
2022/03/05 09:20:14;;;;;;;;;;;;;;;;;;4892097;29;19922;-77
2022/03/05 09:22:40;;;;;;;;;;;;;;;;;;4897501;29;19915;-77
2022/03/05 09:25:06;;;;;;;;;;;;;;;;;;4916093;29;19911;-77
2022/03/05 09:27:33;;;;;;;;;;;;;;;;;;4918342;29;19915;-78
2022/03/05 09:29:59;;;;;;;;;;;;;;;;;;4918079;29;19930;-77
2022/03/05 11:24:05;;;;;;;;;;;;;;;;;;5818990;23;19931;-76
2022/03/05 11:26:33;;;;;;;;;;;;;;;;;;4917425;29;21524;-79
2022/03/05 11:28:59;;;;;;;;;;;;;;;;;;4918422;29;19919;-79
2022/03/05 11:31:24;;;;;;;;;;;;;;;;;;4918193;29;19978;-80
2022/03/05 11:33:50;;;;;;;;;;;;;;;;;;4901215;29;19913;-80
2022/03/05 11:36:16;;;;;;;;;;;;;;;;;;4917423;29;20282;-77
2022/03/05 11:38:42;;;;;;;;;;;;;;;;;;4917932;29;19921;-77
2022/03/05 11:41:08;;;;;;;;;;;;;;;;;;4917312;29;19917;-77
2022/03/05 11:43:34;;;;;;;;;;;;;;;;;;4915519;29;19915;-78
2022/03/05 11:46:00;;;;;;;;;;;;;;;;;;4894499;29;19919;-80
2022/03/05 11:48:26;;;;;;;;;;;;;;;;;;4920484;29;19923;-81
2022/03/05 11:50:52;;;;;;;;;;;;;;;;;;4927762;29;20430;-78
2022/03/05 11:53:18;;;;;;;;;;;;;;;;;;4920773;29;19945;-77
2022/03/05 11:55:45;;;;;;;;;;;;;;;;;;4903825;29;20446;-77
2022/03/05 11:58:11;;;;;;;;;;;;;;;;;;4930722;29;20001;-78
2022/03/05 12:00:37;;;;;;;;;;;;;;;;;;4906372;29;19950;-78
2022/03/05 12:03:03;;;;;;;;;;;;;;;;;;4929140;29;20300;-78
2022/03/05 12:05:29;;;;;;;;;;;;;;;;;;4927476;29;19918;-79
2022/03/05 12:07:55;;;;;;;;;;;;;;;;;;4921074;29;19915;-77
2022/03/05 12:10:20;;;;;;;;;;;;;;;;;;4926359;29;19911;-79
2022/03/05 12:12:46;;;;;;;;;;;;;;;;;;4929105;29;19919;-79
2022/03/05 12:15:13;;;;;;;;;;;;;;;;;;4924393;29;19915;-77
2022/03/05 12:17:39;;;;;;;;;;;;;;;;;;4930463;29;20298;-77
2022/03/05 12:20:05;;;;;;;;;;;;;;;;;;4924765;29;19971;-76
2022/03/05 12:22:31;;;;;;;;;;;;;;;;;;4920968;29;20320;-76
2022/03/05 12:24:57;;;;;;;;;;;;;;;;;;4920026;29;19923;-77
2022/03/05 12:27:24;;;;;;;;;;;;;;;;;;4913298;29;20028;-77
2022/03/05 12:29:50;;;;;;;;;;;;;;;;;;4935364;29;19911;-77
2022/03/05 12:32:16;;;;;;;;;;;;;;;;;;4936158;29;20248;-76
2022/03/05 12:34:42;;;;;;;;;;;;;;;;;;4936031;29;19939;-77
2022/03/05 12:37:08;;;;;;;;;;;;;;;;;;4936505;29;19910;-77
2022/03/05 12:39:34;;;;;;;;;;;;;;;;;;4936038;29;20326;-77
2022/03/05 12:42:00;;;;;;;;;;;;;;;;;;4935282;29;20001;-77
2022/03/05 12:44:26;;;;;;;;;;;;;;;;;;4934561;29;19917;-76
2022/03/05 12:46:52;;;;;;;;;;;;;;;;;;4935128;29;19923;-77
2022/03/05 12:49:18;;;;;;;;;;;;;;;;;;4936042;29;19910;-77
2022/03/05 12:51:44;;;;;;;;;;;;;;;;;;4935563;29;19917;-77
2022/03/05 12:54:10;;;;;;;;;;;;;;;;;;4935504;29;20299;-76
2022/03/05 12:56:37;;;;;;;;;;;;;;;;;;4929830;29;19915;-77
2022/03/05 12:59:04;;;;;;;;;;;;;;;;;;4911519;29;19921;-77
2022/03/05 13:01:30;;;;;;;;;;;;;;;;;;4920699;29;19923;-77
2022/03/05 13:03:56;;;;;;;;;;;;;;;;;;4932893;29;19911;-77
2022/03/05 13:06:22;;;;;;;;;;;;;;;;;;4909945;29;19918;-77
2022/03/05 13:08:48;;;;;;;;;;;;;;;;;;4934425;29;20272;-77
2022/03/05 13:11:14;;;;;;;;;;;;;;;;;;4909305;29;19922;-77
2022/03/05 13:13:40;;;;;;;;;;;;;;;;;;4929325;29;19914;-78
2022/03/05 13:16:06;;;;;;;;;;;;;;;;;;4930338;29;19915;-77
2022/03/05 13:18:31;;;;;;;;;;;;;;;;;;4930323;29;19910;-77
2022/03/05 13:20:57;;;;;;;;;;;;;;;;;;4933685;29;19911;-77
2022/03/05 13:23:23;;;;;;;;;;;;;;;;;;4931278;29;19911;-77
2022/03/05 13:25:49;;;;;;;;;;;;;;;;;;4932760;29;19969;-77
2022/03/05 13:28:15;;;;;;;;;;;;;;;;;;4930710;29;20070;-77
2022/03/05 13:30:41;;;;;;;;;;;;;;;;;;4914829;29;19918;-76
2022/03/05 13:33:07;;;;;;;;;;;;;;;;;;4931309;29;19910;-77
2022/03/05 13:35:33;;;;;;;;;;;;;;;;;;4935243;29;19923;-76
2022/03/05 13:37:59;;;;;;;;;;;;;;;;;;4936043;29;19918;-77
2022/03/05 13:40:25;;;;;;;;;;;;;;;;;;4934461;29;19911;-77
2022/03/05 13:42:51;;;;;;;;;;;;;;;;;;4936701;29;19919;-77
2022/03/05 13:45:17;;;;;;;;;;;;;;;;;;4935073;29;20275;-77
2022/03/05 13:47:43;;;;;;;;;;;;;;;;;;4933028;29;19915;-77
2022/03/05 13:50:09;;;;;;;;;;;;;;;;;;4933011;29;19958;-77
2022/03/05 13:52:35;;;;;;;;;;;;;;;;;;4909936;29;20555;-75
2022/03/05 13:55:01;;;;;;;;;;;;;;;;;;4931810;29;19912;-75
2022/03/05 13:57:27;;;;;;;;;;;;;;;;;;4937171;29;19910;-75
2022/03/05 13:59:53;;;;;;;;;;;;;;;;;;4909900;29;20314;-76
2022/03/05 14:02:19;;;;;;;;;;;;;;;;;;4913036;29;19965;-77
2022/03/05 14:04:45;;;;;;;;;;;;;;;;;;4937275;29;20430;-77
2022/03/05 14:07:11;;;;;;;;;;;;;;;;;;4935832;29;19927;-77
2022/03/05 14:09:37;;;;;;;;;;;;;;;;;;4937246;29;19915;-75
2022/03/05 14:12:03;;;;;;;;;;;;;;;;;;4937236;29;19966;-77
2022/03/05 14:14:29;;;;;;;;;;;;;;;;;;4937304;29;19915;-77
2022/03/05 14:16:54;;;;;;;;;;;;;;;;;;4935378;29;20009;-77
2022/03/05 14:19:20;;;;;;;;;;;;;;;;;;4929946;29;19965;-77
2022/03/05 14:21:46;;;;;;;;;;;;;;;;;;4936765;29;20330;-76
2022/03/05 14:24:12;;;;;;;;;;;;;;;;;;4916482;29;19918;-77
2022/03/05 14:26:38;;;;;;;;;;;;;;;;;;4926622;29;19927;-74
2022/03/05 14:29:04;;;;;;;;;;;;;;;;;;4930519;29;19911;-77
2022/03/05 14:31:30;;;;;;;;;;;;;;;;;;4934620;29;20443;-74
2022/03/05 14:33:56;;;;;;;;;;;;;;;;;;4936847;29;19997;-77
2022/03/05 14:36:22;;;;;;;;;;;;;;;;;;4934527;29;20067;-77
2022/03/05 14:38:48;;;;;;;;;;;;;;;;;;4934013;29;19911;-77
2022/03/05 14:41:14;;;;;;;;;;;;;;;;;;4934808;29;20021;-77
2022/03/05 14:43:40;;;;;;;;;;;;;;;;;;4937168;29;19971;-77
2022/03/05 14:46:06;;;;;;;;;;;;;;;;;;4916442;29;19919;-77
2022/03/05 14:48:32;;;;;;;;;;;;;;;;;;4914696;29;19968;-77
2022/03/05 14:50:57;;;;;;;;;;;;;;;;;;4900072;29;19919;-77
2022/03/05 14:53:23;;;;;;;;;;;;;;;;;;4899847;29;19918;-77
2022/03/05 14:55:49;;;;;;;;;;;;;;;;;;4914244;29;19911;-76
2022/03/05 14:58:15;;;;;;;;;;;;;;;;;;4911468;29;19915;-75
2022/03/05 15:00:41;;;;;;;;;;;;;;;;;;4937959;29;19938;-75
2022/03/05 15:03:07;;;;;;;;;;;;;;;;;;4937525;29;19907;-76
2022/03/05 15:05:33;;;;;;;;;;;;;;;;;;4927022;29;19919;-76
2022/03/05 15:07:59;;;;;;;;;;;;;;;;;;4918559;29;19911;-75
2022/03/05 15:10:25;;;;;;;;;;;;;;;;;;4918548;29;19918;-76
2022/03/05 15:12:51;;;;;;;;;;;;;;;;;;4901452;29;19915;-76
2022/03/05 15:15:16;;;;;;;;;;;;;;;;;;4899859;29;19915;-76
2022/03/05 15:17:43;;;;;;;;;;;;;;;;;;4899467;29;19915;-76
2022/03/05 15:20:10;;;;;;;;;;;;;;;;;;4899719;29;19911;-76
2022/03/05 15:22:36;;;;;;;;;;;;;;;;;;4899249;29;19922;-76
2022/03/05 15:25:02;;;;;;;;;;;;;;;;;;4907354;29;19923;-76
2022/03/05 15:27:29;;;;;;;;;;;;;;;;;;4930745;29;19915;-77
2022/03/05 15:29:55;;;;;;;;;;;;;;;;;;4925032;29;20035;-77
2022/03/05 15:32:21;;;;;;;;;;;;;;;;;;4921061;29;19975;-77
2022/03/05 15:34:47;;;;;;;;;;;;;;;;;;4913658;29;20361;-77
2022/03/05 15:37:13;;;;;;;;;;;;;;;;;;4933079;29;19911;-77
2022/03/05 15:39:39;;;;;;;;;;;;;;;;;;4919631;29;19918;-77
2022/03/05 15:42:05;;;;;;;;;;;;;;;;;;4932570;29;19915;-77
2022/03/05 15:44:31;;;;;;;;;;;;;;;;;;4936003;29;19911;-77
2022/03/05 15:46:57;;;;;;;;;;;;;;;;;;4928009;29;20030;-82
2022/03/05 15:49:23;;;;;;;;;;;;;;;;;;4936161;29;19925;-78
2022/03/05 15:51:48;;;;;;;;;;;;;;;;;;4921819;29;20396;-77
2022/03/05 15:54:14;;;;;;;;;;;;;;;;;;4917972;29;19918;-79
2022/03/05 15:56:40;;;;;;;;;;;;;;;;;;4917830;29;19911;-78
2022/03/05 15:59:06;;;;;;;;;;;;;;;;;;4926822;29;19917;-76
2022/03/05 16:01:32;;;;;;;;;;;;;;;;;;4935069;29;19914;-77
2022/03/05 16:04:02;;;;;;;;;;;;;;;;;;4935804;29;19911;-76
2022/03/05 16:06:28;;;;;;;;;;;;;;;;;;4935143;29;20013;-77
2022/03/05 16:08:54;;;;;;;;;;;;;;;;;;4936422;29;19946;-77
2022/03/05 16:11:20;;;;;;;;;;;;;;;;;;4925182;29;20018;-77
2022/03/05 16:13:46;;;;;;;;;;;;;;;;;;4928667;29;20427;-76
2022/03/05 16:16:12;;;;;;;;;;;;;;;;;;4936150;29;19915;-77
2022/03/05 16:18:38;;;;;;;;;;;;;;;;;;4934948;29;19915;-77
2022/03/05 16:21:04;;;;;;;;;;;;;;;;;;4921515;29;19932;-77
2022/03/05 16:23:31;;;;;;;;;;;;;;;;;;4935649;29;19911;-76
2022/03/05 16:25:57;;;;;;;;;;;;;;;;;;4931711;29;19927;-76
2022/03/05 16:28:23;;;;;;;;;;;;;;;;;;4921999;29;20299;-76
2022/03/05 16:30:48;;;;;;;;;;;;;;;;;;4930826;29;19915;-76
2022/03/05 16:33:14;;;;;;;;;;;;;;;;;;4906586;29;19910;-75
2022/03/05 16:35:40;;;;;;;;;;;;;;;;;;4935243;29;20383;-75
2022/03/05 16:38:07;;;;;;;;;;;;;;;;;;4935493;29;19938;-77
2022/03/05 16:40:34;;;;;;;;;;;;;;;;;;4934532;29;19915;-76
2022/03/05 16:43:00;;;;;;;;;;;;;;;;;;4935322;29;19911;-76
2022/03/05 16:45:26;;;;;;;;;;;;;;;;;;4931973;29;21459;-77
2022/03/05 16:47:52;;;;;;;;;;;;;;;;;;4927554;29;19912;-76
2022/03/05 16:50:18;;;;;;;;;;;;;;;;;;4930170;29;19915;-77
2022/03/05 16:52:44;;;;;;;;;;;;;;;;;;4928876;29;20374;-76
2022/03/05 16:55:10;;;;;;;;;;;;;;;;;;4935506;29;20329;-77
2022/03/05 16:57:35;;;;;;;;;;;;;;;;;;4934165;29;20002;-76
2022/03/05 17:00:02;;;;;;;;;;;;;;;;;;4932133;29;19922;-76
2022/03/05 17:02:28;;;;;;;;;;;;;;;;;;4932840;29;19946;-77
2022/03/05 17:04:54;;;;;;;;;;;;;;;;;;4926119;29;20456;-76
2022/03/05 17:07:20;;;;;;;;;;;;;;;;;;4930869;29;19922;-76
2022/03/05 17:09:46;;;;;;;;;;;;;;;;;;4916138;29;19983;-76
2022/03/05 17:12:12;;;;;;;;;;;;;;;;;;4923477;29;19911;-77
2022/03/05 17:14:38;;;;;;;;;;;;;;;;;;4933736;29;20005;-78
2022/03/05 17:17:04;;;;;;;;;;;;;;;;;;4935005;29;20005;-79
2022/03/05 17:19:30;;;;;;;;;;;;;;;;;;4917349;29;19961;-78
2022/03/05 17:21:56;;;;;;;;;;;;;;;;;;4926998;29;19915;-78
2022/03/05 17:24:22;;;;;;;;;;;;;;;;;;4905818;29;19924;-76
2022/03/05 17:26:48;;;;;;;;;;;;;;;;;;4930849;29;20370;-77
2022/03/05 17:29:14;;;;;;;;;;;;;;;;;;4935104;29;19922;-77
2022/03/05 17:31:40;;;;;;;;;;;;;;;;;;4935485;29;19911;-77
2022/03/05 17:34:06;;;;;;;;;;;;;;;;;;4935528;29;19994;-77
2022/03/05 17:36:34;;;;;;;;;;;;;;;;;;4934094;29;19913;-77
2022/03/05 17:39:00;;;;;;;;;;;;;;;;;;4934565;29;19915;-77
2022/03/05 17:41:26;;;;;;;;;;;;;;;;;;4918033;29;19993;-77
2022/03/05 17:43:52;;;;;;;;;;;;;;;;;;4933205;29;19957;-76
2022/03/05 17:46:18;;;;;;;;;;;;;;;;;;4934943;29;20010;-77
2022/03/05 17:48:44;;;;;;;;;;;;;;;;;;4934522;29;20385;-76
2022/03/05 17:51:10;;;;;;;;;;;;;;;;;;4929768;29;20298;-76
2022/03/05 17:53:36;;;;;;;;;;;;;;;;;;4924265;29;19919;-77
2022/03/05 17:56:03;;;;;;;;;;;;;;;;;;4929718;29;19969;-80
2022/03/05 17:58:29;;;;;;;;;;;;;;;;;;4922653;29;20290;-77
2022/03/05 18:00:55;;;;;;;;;;;;;;;;;;4922620;29;19919;-78
2022/03/05 18:03:21;;;;;;;;;;;;;;;;;;4918827;29;19984;-77
2022/03/05 18:05:46;;;;;;;;;;;;;;;;;;4925605;29;20010;-78
2022/03/05 18:08:12;;;;;;;;;;;;;;;;;;4922079;29;19915;-78
2022/03/05 18:10:38;;;;;;;;;;;;;;;;;;4931489;29;19915;-77
2022/03/05 18:13:04;;;;;;;;;;;;;;;;;;4929194;29;19920;-76
2022/03/05 18:15:30;;;;;;;;;;;;;;;;;;4935803;29;19926;-77
2022/03/05 18:17:56;;;;;;;;;;;;;;;;;;4934891;29;19941;-76
2022/03/05 18:20:22;;;;;;;;;;;;;;;;;;4933616;29;19999;-77
2022/03/05 18:22:48;;;;;;;;;;;;;;;;;;4927527;29;19918;-77
2022/03/05 18:25:17;;;;;;;;;;;;;;;;;;4928394;29;19919;-77
2022/03/05 18:27:42;;;;;;;;;;;;;;;;;;4932956;29;19915;-78
2022/03/05 18:30:08;;;;;;;;;;;;;;;;;;4916179;29;19937;-79
2022/03/05 18:32:34;;;;;;;;;;;;;;;;;;4908127;29;19921;-79